createdAt,value
2019-04-27T00:02:57.694Z,4.62
2019-04-27T00:05:37.361Z,5.47
2019-04-27T00:08:23.924Z,5.53
2019-04-27T00:11:08.804Z,5.92
2019-04-27T00:13:44.500Z,7.37
2019-04-27T00:16:40.493Z,6.85
2019-04-27T00:19:27.274Z,5.20
2019-04-27T00:22:05.278Z,5.05
2019-04-27T00:24:40.656Z,4.87
2019-04-27T00:27:16.435Z,4.25
2019-04-27T00:29:53.440Z,3.40
2019-04-27T00:32:28.978Z,3.67
2019-04-27T00:35:05.826Z,4.47
2019-04-27T00:37:50.173Z,5.37
2019-04-27T00:40:35.517Z,7.20
2019-04-27T00:43:11.231Z,4.47
2019-04-27T00:45:46.624Z,4.75
2019-04-27T00:48:23.372Z,5.90
2019-04-27T00:50:58.902Z,5.75
2019-04-27T00:53:34.447Z,4.15
2019-04-27T00:56:28.738Z,4.37
2019-04-27T00:59:23.850Z,6.08
2019-04-27T01:02:13.449Z,4.03
2019-04-27T01:04:49.142Z,4.70
2019-04-27T01:07:25.035Z,5.83
2019-04-27T01:10:00.520Z,4.30
2019-04-27T01:12:35.795Z,5.40
2019-04-27T01:15:11.311Z,3.52
2019-04-27T01:17:46.864Z,5.10
2019-04-27T01:20:22.275Z,3.33
2019-04-27T01:22:59.350Z,3.52
2019-04-27T01:25:45.698Z,3.65
2019-04-27T01:28:29.061Z,4.92
2019-04-27T01:31:09.749Z,4.20
2019-04-27T01:33:45.131Z,5.03
2019-04-27T01:36:20.521Z,3.12
2019-04-27T01:38:55.942Z,2.85
2019-04-27T01:41:31.397Z,3.72
2019-04-27T01:44:06.783Z,5.40
2019-04-27T01:46:42.149Z,5.80
2019-04-27T01:49:19.272Z,3.67
2019-04-27T01:51:54.785Z,4.47
2019-04-27T01:54:30.436Z,5.47
2019-04-27T01:57:05.973Z,3.25
2019-04-27T01:59:41.260Z,4.75
2019-04-27T02:02:41.511Z,3.22
2019-04-27T02:05:39.112Z,3.52
2019-04-27T02:08:14.875Z,5.65
2019-04-27T02:10:50.164Z,3.83
2019-04-27T02:13:25.570Z,4.70
2019-04-27T02:16:00.890Z,2.85
2019-04-27T02:18:39.563Z,4.00
2019-04-27T02:21:13.400Z,5.62
2019-04-27T02:23:49.649Z,3.15
2019-04-27T02:26:25.179Z,5.22
2019-04-27T02:29:18.907Z,4.55
2019-04-27T02:32:10.561Z,4.60
2019-04-27T02:34:53.702Z,4.97
2019-04-27T02:37:30.473Z,6.08
2019-04-27T02:40:20.413Z,3.85
2019-04-27T02:42:55.995Z,3.95
2019-04-27T02:45:31.486Z,5.92
2019-04-27T02:48:09.703Z,5.45
2019-04-27T02:50:45.752Z,3.67
2019-04-27T02:53:40.116Z,5.45
2019-04-27T02:56:15.478Z,6.15
2019-04-27T02:58:50.980Z,5.25
2019-04-27T03:01:30.517Z,5.87
2019-04-27T03:04:05.717Z,4.80
2019-04-27T03:06:41.292Z,3.90
2019-04-27T03:09:16.671Z,3.72
2019-04-27T03:11:52.096Z,4.65
2019-04-27T03:14:46.631Z,5.20
2019-04-27T03:17:33.567Z,3.65
2019-04-27T03:20:14.639Z,4.83
2019-04-27T03:22:56.245Z,5.22
2019-04-27T03:25:40.139Z,4.22
2019-04-27T03:28:16.622Z,5.03
2019-04-27T03:30:52.830Z,6.50
2019-04-27T03:33:32.570Z,5.80
2019-04-27T03:36:12.443Z,7.58
2019-04-27T03:38:45.550Z,5.75
2019-04-27T03:41:20.930Z,5.45
2019-04-27T03:43:56.376Z,5.17
2019-04-27T03:46:31.826Z,7.53
2019-04-27T03:49:09.623Z,5.80
2019-04-27T03:51:54.387Z,6.80
2019-04-27T03:54:42.514Z,6.25
2019-04-27T03:57:32.998Z,8.33
2019-04-27T04:00:13.528Z,7.70
2019-04-27T04:02:50.231Z,9.85
2019-04-27T04:05:25.803Z,5.95
2019-04-27T04:08:01.153Z,8.25
2019-04-27T04:10:39.129Z,10.63
2019-04-27T04:13:23.070Z,7.30
2019-04-27T04:16:07.666Z,6.23
2019-04-27T04:19:16.459Z,6.60
2019-04-27T04:21:52.127Z,8.65
2019-04-27T04:24:29.355Z,7.72
2019-04-27T04:27:05.724Z,8.13
2019-04-27T04:29:45.105Z,6.33
2019-04-27T04:32:20.577Z,7.00
2019-04-27T04:35:01.354Z,8.53
2019-04-27T04:37:39.304Z,9.25
2019-04-27T04:40:14.110Z,9.25
2019-04-27T04:43:00.366Z,8.20
2019-04-27T04:46:04.931Z,10.28
2019-04-27T04:48:40.542Z,7.87
2019-04-27T04:51:16.169Z,10.05
2019-04-27T04:53:52.014Z,9.10
2019-04-27T04:56:29.219Z,10.93
2019-04-27T04:59:04.875Z,14.73
2019-04-27T05:01:40.576Z,11.05
2019-04-27T05:04:15.999Z,10.43
2019-04-27T05:06:51.373Z,12.98
2019-04-27T05:09:26.789Z,13.98
2019-04-27T05:12:02.168Z,14.50
2019-04-27T05:14:38.927Z,13.93
2019-04-27T05:17:14.275Z,14.18
2019-04-27T05:19:51.212Z,15.50
2019-04-27T05:22:27.544Z,11.85
2019-04-27T05:25:03.090Z,15.95
2019-04-27T05:27:38.974Z,13.98
2019-04-27T05:30:15.510Z,14.63
2019-04-27T05:32:53.898Z,11.48
2019-04-27T05:35:29.782Z,13.30
2019-04-27T05:38:07.285Z,13.48
2019-04-27T05:40:42.261Z,12.82
2019-04-27T05:43:19.465Z,12.85
2019-04-27T05:46:39.508Z,16.62
2019-04-27T05:49:20.648Z,16.87
2019-04-27T05:51:56.157Z,15.03
2019-04-27T05:54:31.599Z,15.08
2019-04-27T05:57:07.039Z,17.40
2019-04-27T05:59:42.487Z,13.78
2019-04-27T06:02:20.365Z,16.35
2019-04-27T06:04:54.950Z,16.67
2019-04-27T06:07:30.661Z,17.57
2019-04-27T06:10:06.252Z,17.50
2019-04-27T06:12:41.800Z,14.07
2019-04-27T06:15:17.171Z,15.03
2019-04-27T06:17:52.629Z,18.27
2019-04-27T06:20:28.591Z,17.60
2019-04-27T06:23:05.012Z,14.30
2019-04-27T06:25:40.426Z,18.00
2019-04-27T06:28:15.943Z,18.07
2019-04-27T06:30:51.431Z,17.48
2019-04-27T06:33:32.390Z,17.12
2019-04-27T06:36:04.150Z,17.48
2019-04-27T06:38:39.623Z,16.97
2019-04-27T06:41:15.153Z,21.25
2019-04-27T06:43:50.466Z,18.00
2019-04-27T06:46:25.979Z,19.98
2019-04-27T06:49:01.679Z,17.65
2019-04-27T06:51:39.859Z,19.32
2019-04-27T06:54:15.459Z,17.77
2019-04-27T06:56:51.171Z,17.70
2019-04-27T06:59:26.689Z,19.75
2019-04-27T07:02:02.081Z,21.10
2019-04-27T07:04:39.124Z,15.53
2019-04-27T07:07:14.548Z,19.10
2019-04-27T07:09:49.980Z,20.15
2019-04-27T07:12:25.429Z,23.27
2019-04-27T07:15:00.856Z,17.42
2019-04-27T07:17:36.231Z,17.42
2019-04-27T07:20:11.971Z,14.68
2019-04-27T07:22:47.335Z,20.37
2019-04-27T07:25:22.754Z,22.22
2019-04-27T07:27:59.156Z,18.62
2019-04-27T07:30:34.746Z,16.93
2019-04-27T07:33:10.608Z,21.42
2019-04-27T07:35:46.062Z,12.05
2019-04-27T07:38:21.466Z,13.20
2019-04-27T07:40:58.620Z,9.05
2019-04-27T07:43:43.192Z,12.80
2019-04-27T07:46:18.641Z,15.00
2019-04-27T07:48:53.962Z,10.82
2019-04-27T07:51:33.661Z,9.50
2019-04-27T07:54:06.644Z,11.38
2019-04-27T07:56:42.089Z,9.40
2019-04-27T07:59:18.883Z,10.28
2019-04-27T08:01:56.000Z,10.65
2019-04-27T08:04:31.583Z,10.55
2019-04-27T08:07:09.041Z,12.68
2019-04-27T08:09:44.182Z,12.25
2019-04-27T08:12:20.903Z,14.93
2019-04-27T08:14:56.501Z,9.25
2019-04-27T08:17:32.083Z,10.75
2019-04-27T08:20:09.198Z,11.73
2019-04-27T08:22:44.621Z,13.75
2019-04-27T08:25:20.051Z,17.23
2019-04-27T08:28:08.504Z,11.33
2019-04-27T08:31:01.569Z,16.60
2019-04-27T08:33:38.823Z,10.00
2019-04-27T08:36:14.108Z,15.65
2019-04-27T08:38:49.652Z,11.45
2019-04-27T08:41:25.096Z,11.93
2019-04-27T08:44:00.647Z,13.25
2019-04-27T08:46:36.137Z,12.43
2019-04-27T08:49:11.619Z,12.23
2019-04-27T08:51:58.845Z,11.15
2019-04-27T08:54:29.305Z,12.73
2019-04-27T08:57:04.434Z,11.60
2019-04-27T08:59:39.934Z,13.13
2019-04-27T09:02:15.448Z,11.33
2019-04-27T09:04:51.028Z,16.62
2019-04-27T09:07:51.148Z,12.75
2019-04-27T09:10:38.771Z,12.28
2019-04-27T09:13:29.408Z,15.78
2019-04-27T09:16:24.922Z,14.80
2019-04-27T09:19:04.726Z,14.47
2019-04-27T09:22:11.706Z,13.72
2019-04-27T09:24:34.767Z,14.73
2019-04-27T09:27:10.716Z,11.00
2019-04-27T09:29:46.371Z,13.18
2019-04-27T09:32:21.846Z,19.75
2019-04-27T09:34:57.380Z,17.42
2019-04-27T09:37:32.895Z,18.05
2019-04-27T09:40:08.501Z,21.40
2019-04-27T09:42:43.957Z,14.53
2019-04-27T09:45:19.553Z,19.73
2019-04-27T09:47:56.272Z,10.08
2019-04-27T09:50:31.967Z,11.00
2019-04-27T09:53:07.393Z,10.85
2019-04-27T09:55:43.210Z,12.28
2019-04-27T09:58:23.477Z,10.75
2019-04-27T10:00:56.803Z,12.13
2019-04-27T10:03:36.941Z,14.53
2019-04-27T10:06:12.402Z,12.85
2019-04-27T10:08:51.076Z,15.45
2019-04-27T10:11:29.474Z,13.55
2019-04-27T10:14:12.991Z,8.68
2019-04-27T10:16:57.343Z,13.10
2019-04-27T10:19:32.897Z,10.15
2019-04-27T10:22:07.996Z,12.73
2019-04-27T10:24:43.475Z,13.43
2019-04-27T10:27:19.950Z,14.87
2019-04-27T10:29:56.965Z,13.55
2019-04-27T10:32:36.145Z,14.00
2019-04-27T10:35:11.813Z,15.23
2019-04-27T10:37:47.314Z,16.27
2019-04-27T10:40:22.768Z,11.68
2019-04-27T10:42:58.184Z,14.15
2019-04-27T10:45:33.628Z,15.90
2019-04-27T10:48:09.052Z,11.95
2019-04-27T10:50:44.562Z,12.07
2019-04-27T10:53:19.866Z,14.60
2019-04-27T10:55:56.529Z,13.70
2019-04-27T10:58:35.934Z,12.60
2019-04-27T11:01:13.070Z,11.73
2019-04-27T11:04:22.589Z,14.95
2019-04-27T11:07:09.764Z,18.95
2019-04-27T11:09:45.485Z,8.95
2019-04-27T11:12:20.893Z,12.70
2019-04-27T11:14:56.453Z,11.18
2019-04-27T11:17:31.850Z,10.85
2019-04-27T11:20:07.705Z,9.43
2019-04-27T11:22:43.401Z,11.28
2019-04-27T11:25:18.797Z,13.80
2019-04-27T11:27:57.458Z,13.08
2019-04-27T11:30:31.205Z,11.55
2019-04-27T11:33:06.722Z,11.18
2019-04-27T11:35:51.969Z,11.30
2019-04-27T11:38:27.334Z,10.08
2019-04-27T11:41:02.807Z,9.40
2019-04-27T11:43:38.370Z,11.05
2019-04-27T11:46:14.059Z,9.10
2019-04-27T11:48:49.645Z,12.82
2019-04-27T11:51:26.613Z,9.20
2019-04-27T11:54:02.347Z,11.57
2019-04-27T11:56:37.797Z,7.97
2019-04-27T11:59:13.329Z,10.18
2019-04-27T12:01:48.825Z,7.92
2019-04-27T12:04:26.178Z,12.37
2019-04-27T12:07:01.419Z,9.08
2019-04-27T12:09:36.874Z,13.38
2019-04-27T12:12:21.685Z,8.95
2019-04-27T12:14:53.486Z,9.78
2019-04-27T12:17:29.238Z,9.95
2019-04-27T12:20:05.335Z,7.97
2019-04-27T12:22:40.820Z,9.70
2019-04-27T12:25:16.527Z,6.15
2019-04-27T12:28:14.050Z,8.08
2019-04-27T12:31:04.178Z,8.78
2019-04-27T12:33:39.544Z,5.65
2019-04-27T12:36:15.760Z,9.83
2019-04-27T12:38:52.216Z,7.03
2019-04-27T12:41:35.423Z,3.87
2019-04-27T12:46:46.662Z,3.58
2019-04-27T12:49:22.136Z,2.60
2019-04-27T12:51:57.847Z,7.95
2019-04-27T12:54:39.109Z,7.17
2019-04-27T12:57:31.590Z,5.47
2019-04-27T13:00:17.147Z,6.30
2019-04-27T13:02:52.680Z,9.83
2019-04-27T13:05:28.125Z,9.78
2019-04-27T13:08:03.725Z,7.58
2019-04-27T13:10:39.122Z,11.03
2019-04-27T13:13:16.304Z,12.43
2019-04-27T13:15:51.868Z,10.63
2019-04-27T13:18:27.367Z,9.85
2019-04-27T13:21:02.790Z,8.45
2019-04-27T13:23:38.237Z,8.98
2019-04-27T13:26:13.692Z,4.42
2019-04-27T13:28:49.316Z,5.55
2019-04-27T13:31:25.753Z,5.75
2019-04-27T13:34:02.792Z,6.67
2019-04-27T13:36:38.316Z,7.25
2019-04-27T13:39:13.684Z,4.95
2019-04-27T13:41:49.374Z,6.40
2019-04-27T13:44:26.142Z,8.05
2019-04-27T13:47:32.658Z,8.98
2019-04-27T13:50:13.691Z,9.20
2019-04-27T13:52:49.170Z,12.47
2019-04-27T13:55:24.446Z,4.45
2019-04-27T13:57:59.840Z,9.95
2019-04-27T14:00:37.740Z,7.22
2019-04-27T14:03:12.266Z,6.12
2019-04-27T14:05:49.400Z,7.37
2019-04-27T14:08:25.033Z,5.15
2019-04-27T14:11:01.222Z,6.75
2019-04-27T14:13:36.741Z,6.12
2019-04-27T14:16:12.281Z,6.05
2019-04-27T14:18:50.477Z,5.67
2019-04-27T14:21:25.922Z,8.48
2019-04-27T14:24:01.353Z,6.37
2019-04-27T14:26:38.618Z,8.75
2019-04-27T14:29:14.133Z,9.15
2019-04-27T14:31:49.798Z,8.43
2019-04-27T14:34:25.313Z,11.18
2019-04-27T14:37:00.793Z,10.80
2019-04-27T14:39:36.154Z,8.80
2019-04-27T14:42:11.794Z,6.65
2019-04-27T14:44:48.947Z,6.05
2019-04-27T14:47:24.863Z,11.93
2019-04-27T14:50:00.297Z,11.28
2019-04-27T14:52:35.967Z,7.15
2019-04-27T14:55:11.516Z,10.32
2019-04-27T14:57:47.086Z,7.67
2019-04-27T15:00:22.689Z,11.73
2019-04-27T15:02:59.172Z,11.78
2019-04-27T15:05:34.607Z,13.70
2019-04-27T15:08:10.386Z,10.35
2019-04-27T15:10:46.437Z,12.20
2019-04-27T15:13:22.023Z,12.60
2019-04-27T15:15:57.519Z,10.50
2019-04-27T15:18:39.808Z,9.98
2019-04-27T15:21:13.823Z,8.98
2019-04-27T15:23:49.387Z,12.80
2019-04-27T15:26:24.889Z,9.55
2019-04-27T15:29:02.428Z,7.65
2019-04-27T15:31:42.082Z,13.28
2019-04-27T15:34:35.679Z,10.98
2019-04-27T15:37:35.269Z,10.53
2019-04-27T15:40:35.939Z,9.63
2019-04-27T15:43:31.804Z,13.98
2019-04-27T15:46:08.278Z,12.73
2019-04-27T15:48:43.771Z,10.53
2019-04-27T15:51:21.182Z,12.20
2019-04-27T15:53:56.254Z,10.10
2019-04-27T15:56:35.179Z,10.65
2019-04-27T15:59:25.203Z,6.90
2019-04-27T16:02:05.457Z,10.10
2019-04-27T16:04:40.059Z,10.72
2019-04-27T16:07:18.115Z,11.00
2019-04-27T16:09:54.381Z,12.85
2019-04-27T16:12:30.722Z,12.33
2019-04-27T16:15:07.993Z,13.48
2019-04-27T16:17:51.024Z,14.47
2019-04-27T16:20:31.596Z,13.05
2019-04-27T16:23:03.065Z,8.30
2019-04-27T16:25:46.012Z,11.43
2019-04-27T16:28:13.944Z,11.70
2019-04-27T16:30:50.615Z,8.28
2019-04-27T16:33:26.763Z,10.13
2019-04-27T16:36:07.027Z,5.58
2019-04-27T16:38:48.932Z,4.92
2019-04-27T16:41:24.411Z,6.58
2019-04-27T16:44:02.264Z,8.10
2019-04-27T16:46:39.503Z,8.58
2019-04-27T16:49:15.298Z,9.18
2019-04-27T16:51:50.754Z,11.38
2019-04-27T16:54:28.151Z,10.30
2019-04-27T16:57:05.447Z,9.55
2019-04-27T16:59:46.051Z,13.25
2019-04-27T17:02:23.605Z,10.80
2019-04-27T17:04:55.587Z,10.55
2019-04-27T17:07:37.560Z,14.63
2019-04-27T17:10:16.276Z,17.00
2019-04-27T17:12:51.212Z,12.75
2019-04-27T17:15:46.213Z,14.25
2019-04-27T17:18:34.646Z,16.25
2019-04-27T17:21:23.177Z,15.80
2019-04-27T17:24:02.786Z,13.68
2019-04-27T17:26:41.916Z,17.85
2019-04-27T17:29:16.823Z,16.60
2019-04-27T17:31:55.033Z,17.07
2019-04-27T17:34:30.949Z,19.62
2019-04-27T17:37:08.186Z,15.05
2019-04-27T17:39:43.586Z,12.85
2019-04-27T17:42:22.729Z,21.17
2019-04-27T17:44:57.691Z,19.90
2019-04-27T17:47:33.443Z,18.62
2019-04-27T17:50:09.353Z,16.57
2019-04-27T17:52:48.425Z,17.70
2019-04-27T17:55:24.463Z,17.77
2019-04-27T17:58:05.349Z,16.17
2019-04-27T18:00:43.140Z,16.17
2019-04-27T18:03:17.565Z,20.90
2019-04-27T18:05:52.045Z,21.87
2019-04-27T18:08:29.099Z,16.65
2019-04-27T18:11:04.606Z,18.40
2019-04-27T18:13:42.120Z,16.00
2019-04-27T18:16:18.991Z,14.90
2019-04-27T18:19:18.266Z,17.67
2019-04-27T18:22:00.815Z,15.53
2019-04-27T18:24:49.491Z,16.57
2019-04-27T18:27:40.662Z,16.27
2019-04-27T18:30:41.876Z,22.15
2019-04-27T18:33:15.234Z,13.78
2019-04-27T18:35:50.818Z,22.02
2019-04-27T18:38:26.277Z,20.97
2019-04-27T18:41:03.093Z,15.35
2019-04-27T18:43:45.882Z,20.30
2019-04-27T18:46:22.027Z,11.85
2019-04-27T18:49:12.107Z,17.15
2019-04-27T18:52:24.345Z,21.45
2019-04-27T18:54:59.881Z,16.07
2019-04-27T18:57:35.712Z,18.30
2019-04-27T19:00:14.593Z,14.35
2019-04-27T19:02:50.507Z,18.10
2019-04-27T19:05:48.132Z,17.15
2019-04-27T19:08:24.755Z,14.80
2019-04-27T19:11:00.458Z,15.72
2019-04-27T19:13:38.169Z,18.02
2019-04-27T19:16:14.098Z,20.52
2019-04-27T19:18:49.691Z,15.85
2019-04-27T19:21:25.103Z,13.98
2019-04-27T19:24:00.798Z,15.10
2019-04-27T19:26:53.916Z,18.40
2019-04-27T19:29:32.935Z,10.25
2019-04-27T19:32:12.852Z,13.45
2019-04-27T19:34:54.884Z,16.42
2019-04-27T19:37:30.279Z,18.20
2019-04-27T19:40:08.615Z,20.60
2019-04-27T19:42:44.078Z,16.00
2019-04-27T19:45:21.154Z,16.05
2019-04-27T19:47:56.701Z,21.10
2019-04-27T19:50:32.256Z,25.35
2019-04-27T19:53:09.654Z,17.55
2019-04-27T19:56:01.821Z,16.52
2019-04-27T19:58:44.766Z,16.32
2019-04-27T20:01:25.295Z,20.30
2019-04-27T20:04:08.794Z,18.92
2019-04-27T20:06:44.368Z,20.57
2019-04-27T20:09:42.818Z,21.65
2019-04-27T20:12:18.398Z,23.38
2019-04-27T20:14:56.522Z,19.67
2019-04-27T20:17:32.721Z,16.27
2019-04-27T20:20:08.949Z,20.55
2019-04-27T20:22:44.601Z,16.87
2019-04-27T20:25:21.263Z,18.05
2019-04-27T20:27:56.797Z,17.25
2019-04-27T20:30:32.272Z,15.18
2019-04-27T20:33:07.713Z,17.75
2019-04-27T20:35:43.094Z,20.20
2019-04-27T20:38:18.604Z,14.35
2019-04-27T20:40:53.967Z,15.75
2019-04-27T20:43:29.351Z,15.05
2019-04-27T20:46:04.926Z,17.50
2019-04-27T20:48:41.468Z,19.17
2019-04-27T20:51:18.764Z,18.40
2019-04-27T20:53:55.990Z,16.62
2019-04-27T20:56:31.464Z,18.67
2019-04-27T20:59:06.930Z,19.40
2019-04-27T21:01:42.384Z,19.45
2019-04-27T21:04:20.979Z,16.45
2019-04-27T21:07:01.194Z,27.50
2019-04-27T21:09:36.567Z,20.25
2019-04-27T21:12:11.988Z,13.53
2019-04-27T21:14:47.518Z,16.90
2019-04-27T21:17:22.892Z,16.57
2019-04-27T21:19:58.551Z,23.45
2019-04-27T21:22:35.183Z,20.17
2019-04-27T21:25:11.874Z,13.48
2019-04-27T21:27:54.805Z,16.95
2019-04-27T21:30:28.991Z,20.65
2019-04-27T21:33:11.336Z,22.60
2019-04-27T21:35:48.722Z,23.42
2019-04-27T21:38:24.116Z,15.53
2019-04-27T21:40:59.555Z,18.95
2019-04-27T21:43:43.790Z,20.52
2019-04-27T21:46:21.026Z,18.42
2019-04-27T21:48:56.567Z,15.55
2019-04-27T21:51:33.715Z,17.10
2019-04-27T21:54:23.529Z,16.50
2019-04-27T21:56:59.014Z,20.70
2019-04-27T21:59:34.467Z,17.15
2019-04-27T22:02:12.103Z,20.52
2019-04-27T22:04:47.624Z,23.10
2019-04-27T22:07:23.041Z,25.68
2019-04-27T22:09:58.647Z,21.42
2019-04-27T22:12:34.098Z,16.73
2019-04-27T22:15:11.050Z,17.50
2019-04-27T22:17:46.706Z,22.15
2019-04-27T22:20:22.032Z,21.27
2019-04-27T22:22:59.072Z,22.67
2019-04-27T22:25:35.948Z,19.12
2019-04-27T22:28:11.818Z,20.40
2019-04-27T22:30:47.219Z,19.73
2019-04-27T22:33:22.568Z,17.73
2019-04-27T22:35:58.084Z,26.25
2019-04-27T22:38:33.508Z,20.55
2019-04-27T22:41:27.811Z,19.40
2019-04-27T22:44:22.251Z,24.37
2019-04-27T22:46:57.682Z,24.07
2019-04-27T22:49:33.124Z,19.87
2019-04-27T22:52:08.542Z,23.27
2019-04-27T22:54:44.013Z,21.57
2019-04-27T22:57:25.436Z,23.38
2019-04-27T23:00:16.038Z,18.55
2019-04-27T23:02:56.043Z,22.67
2019-04-27T23:05:31.956Z,27.67
2019-04-27T23:08:07.399Z,23.42
2019-04-27T23:10:42.824Z,25.23
2019-04-27T23:13:18.423Z,23.87
2019-04-27T23:15:55.583Z,20.60
2019-04-27T23:18:31.223Z,20.23
2019-04-27T23:21:07.612Z,22.93
2019-04-27T23:23:43.059Z,18.37
2019-04-27T23:26:18.639Z,24.00
2019-04-27T23:28:53.954Z,22.30
2019-04-27T23:31:52.688Z,16.37
2019-04-27T23:34:35.295Z,19.92
2019-04-27T23:37:13.371Z,21.63
2019-04-27T23:39:48.672Z,20.10
2019-04-27T23:42:24.244Z,22.52
2019-04-27T23:44:59.628Z,20.48
2019-04-27T23:47:35.201Z,22.67
2019-04-27T23:50:13.256Z,23.42
2019-04-27T23:53:04.756Z,24.92
2019-04-27T23:55:41.956Z,23.57
2019-04-27T23:58:20.349Z,28.87
